Flight Track Log - Related Links

Times and Time Zones

All times are in EDT time to prevent confusion due to time zone crossing. See the AWI3859 flight status page for this flight to view local times or setup timezone preferences in your user account.

Time Position Orientation Groundspeed Altitude Reporting Facility
EDT Latitude Longitude Course Direction KTS MPH feet Rate Location/Type
Sun 05:18:16 PM 38.8167 -77.0333 270° West 162 186 1,600  Level Potomac TRACON
Sun 05:20:11 PM 38.7333 -77.1000 212° Southwest 265 305 5,800 2,243 Climbing Potomac TRACON
Sun 05:21:00 PM 38.8500 -77.5436 270° West  Level FlightAware Approximate
Sun 05:21:50 PM 38.7017 -77.2594 256° West 274 315 9,600  Level Washington Center
Sun 05:22:00 PM 38.8501 -77.6712 270° West  Level FlightAware Approximate
Sun 05:22:50 PM 38.7192 -77.3478 284° West 279 321 11,400  Level Washington Center
Sun 05:23:00 PM 38.8500 -77.7987 270° West  Level FlightAware Approximate
Sun 05:23:52 PM 38.7406 -77.4547 284° West 284 327 12,700  Level Washington Center
Sun 05:24:52 PM 38.7575 -77.5722 281° West 318 366 13,600 915 Climbing Washington Center
Sun 05:25:50 PM 38.7761 -77.7006 281° West 350 403 14,500 1,068 Climbing Washington Center
Sun 05:26:50 PM 38.7989 -77.8292 283° West 369 425 15,700 1,240 Climbing Washington Center
Sun 05:27:51 PM 38.8172 -77.9603 280° West 374 430 17,000 1,082 Climbing Washington Center
Sun 05:28:52 PM 38.8375 -78.0889 281° West 374 430 17,900 908 Climbing Washington Center
Sun 05:29:50 PM 38.8533 -78.2228 279° West 374 430 18,800 915 Climbing Washington Center
Sun 05:30:50 PM 38.8519 -78.3744 269° West 374 430 19,700 850 Climbing Washington Center
Sun 05:31:50 PM 38.8508 -78.5131 269° West 386 444 20,500 694 Climbing Washington Center
Sun 05:32:51 PM 38.8500 -78.6278 270° West 392 451 21,100 992 Climbing Washington Center
Sun 05:33:51 PM 38.8478 -78.7956 269° West 403 464 22,500 893 Climbing Washington Center
Sun 05:34:52 PM 38.8439 -78.9419 268° West 403 464 22,900 605 Climbing Washington Center
Sun 05:35:50 PM 38.8419 -79.0831 269° West 403 464 23,700 706 Climbing Washington Center
Sun 05:36:51 PM 38.8417 -79.2325 270° West 403 464 24,300 595 Climbing Washington Center
Sun 05:37:51 PM 38.8392 -79.3789 269° West 408 470 24,900 545 Climbing Washington Center
Sun 05:38:52 PM 38.8364 -79.5306 269° West 413 475 25,400 504 Climbing Washington Center
Sun 05:39:50 PM 38.8358 -79.6692 270° West 429 494 25,900 305 Climbing Washington Center
Sun 05:40:50 PM 38.8306 -79.8236 268° West 434 499 26,000 50 Climbing Washington Center
Sun 05:41:50 PM 38.8272 -79.9778 268° West 439 505 26,000  Level Washington Center
Sun 05:43:12 PM 38.8181 -80.1833 267° West 427 491 26,000  Level Indianapolis Center
Sun 05:44:14 PM 38.8142 -80.3297 268° West 414 476 26,000  Level Indianapolis Center
Sun 05:45:16 PM 38.8103 -80.4761 268° West 411 473 26,000  Level Indianapolis Center
Sun 05:46:18 PM 38.8061 -80.6183 268° West 403 464 26,000  Level Indianapolis Center
Sun 05:47:20 PM 38.8008 -80.7892 268° West 401 461 26,000  Level Indianapolis Center
Sun 05:48:22 PM 38.7964 -80.9292 268° West 395 455 26,000  Level Indianapolis Center
Sun 05:49:24 PM 38.7747 -81.0694 259° West 401 461 26,000  Level Indianapolis Center
Sun 05:50:26 PM 38.7531 -81.2086 259° West 399 459 26,000  Level Indianapolis Center
Sun 05:51:28 PM 38.7311 -81.3467 259° West 396 456 26,000  Level Indianapolis Center
Sun 05:52:30 PM 38.7081 -81.4894 258° West 400 460 26,000  Level Indianapolis Center
Sun 05:53:32 PM 38.6811 -81.6522 258° West 401 461 26,000  Level Indianapolis Center
Sun 05:54:34 PM 38.6603 -81.7806 258° West 401 461 26,000 -192 Level Indianapolis Center
Sun 05:55:37 PM 38.6375 -81.9186 258° West 396 456 25,600 -720 Descending Indianapolis Center
Sun 05:56:39 PM 38.6131 -82.0594 258° West 405 466 24,500 -774 Descending Indianapolis Center
Sun 05:57:41 PM 38.5844 -82.2314 258° West 413 475 24,000 -242 Descending Indianapolis Center
Sun 05:58:43 PM 38.5606 -82.3700 258° West 402 463 24,000  Level Indianapolis Center
Sun 05:59:45 PM 38.5356 -82.5128 257° West 394 453 24,000  Level Indianapolis Center
Sun 06:00:47 PM 38.5119 -82.6503 258° West 396 456 24,000 -532 Level Indianapolis Center
Sun 06:01:49 PM 38.4867 -82.7894 257° West 402 463 22,900 -1,548 Descending Indianapolis Center
Sun 06:02:51 PM 38.4633 -82.9294 258° West 403 464 20,800 -1,403 Descending Indianapolis Center
Sun 06:03:53 PM 38.4603 -83.0864 269° West 381 438 20,000 -484 Descending Indianapolis Center
Sun 06:04:55 PM 38.4850 -83.2139 284° West 370 426 19,800 -1,065 Descending Indianapolis Center
Sun 06:05:57 PM 38.5078 -83.3394 283° West 365 420 17,800 -1,742 Descending Indianapolis Center
Sun 06:06:59 PM 38.5306 -83.4642 283° West 362 417 16,200 -1,694 Descending Indianapolis Center
Sun 06:08:01 PM 38.5522 -83.5822 283° West 347 399 14,300 -2,032 Descending Indianapolis Center
Sun 06:09:03 PM 38.5783 -83.7172 284° West 338 389 12,000 -1,984 Descending Indianapolis Center
Sun 06:10:05 PM 38.5981 -83.8308 283° West 330 380 10,200 -968 Descending Indianapolis Center
Sun 06:11:07 PM 38.6214 -83.9406 285° West 322 371 10,000 -97 Descending Indianapolis Center
Sun 06:12:09 PM 38.6658 -84.0228 305° West 316 364 10,000  Level Indianapolis Center
Sun 06:13:13 PM 38.7247 -84.1364 304° West 319 367 10,000  Level Indianapolis Center
Sun 06:14:13 PM 38.7747 -84.2311 304° West 321 369 10,000  Level Indianapolis Center
Sun 06:15:16 PM 38.8231 -84.3264 303° West 320 368 10,000  Level Indianapolis Center
Sun 06:16:18 PM 38.8725 -84.4217 304° West 319 367 10,000 -97 Level Indianapolis Center
Sun 06:17:20 PM 38.9311 -84.5036 313° West 325 374 9,800 -1,016 Descending Indianapolis Center
Sun 06:18:22 PM 39.0061 -84.5353 342° North 288 331 7,900 -2,032 Descending Indianapolis Center
Sun 06:19:24 PM 39.0978 -84.5594 348° North 281 323 5,600 -1,935 Descending Indianapolis Center
Sun 06:20:26 PM 39.1711 -84.5789 348° North 275 316 3,900 -1,113 Descending Indianapolis Center
Sun 06:21:28 PM 39.2108 -84.6411 309° West 271 312 3,300 -711 Descending Indianapolis Center
Sun 06:22:58 PM 39.1167 -84.6667 192° South 173 199 2,100 -840 Descending Cincinnati TRACON
Sun 06:23:58 PM 39.0833 -84.6667 180° South 136 157 1,200 -900 Descending Cincinnati TRACON

Login

Don't have an account? Register now (free) for customized features, flight alerts, and more!